sensor_id;sensor_type;location;lat;lon;timestamp;temperature;humidity
14893;DHT22;7538;53.626;9.906;2023-04-15T00:00:43;9.10;99.90
14893;DHT22;7538;53.626;9.906;2023-04-15T00:03:09;9.10;99.90
14893;DHT22;7538;53.626;9.906;2023-04-15T00:05:36;9.00;99.90
14893;DHT22;7538;53.626;9.906;2023-04-15T00:08:03;9.00;99.90
14893;DHT22;7538;53.626;9.906;2023-04-15T00:10:32;9.00;99.90
14893;DHT22;7538;53.626;9.906;2023-04-15T00:12:59;8.90;99.90
14893;DHT22;7538;53.626;9.906;2023-04-15T00:15:26;9.00;99.90
14893;DHT22;7538;53.626;9.906;2023-04-15T00:17:53;8.90;99.90
14893;DHT22;7538;53.626;9.906;2023-04-15T00:20:20;8.90;99.90
14893;DHT22;7538;53.626;9.906;2023-04-15T00:22:47;8.90;99.90
14893;DHT22;7538;53.626;9.906;2023-04-15T00:25:14;8.90;99.90
14893;DHT22;7538;53.626;9.906;2023-04-15T00:27:42;8.80;99.90
14893;DHT22;7538;53.626;9.906;2023-04-15T00:30:09;8.80;99.90
14893;DHT22;7538;53.626;9.906;2023-04-15T00:32:37;8.80;99.90
14893;DHT22;7538;53.626;9.906;2023-04-15T00:35:04;8.80;99.90
14893;DHT22;7538;53.626;9.906;2023-04-15T00:37:31;8.70;99.90
14893;DHT22;7538;53.626;9.906;2023-04-15T00:39:59;8.80;99.90
14893;DHT22;7538;53.626;9.906;2023-04-15T00:42:27;8.80;99.90
14893;DHT22;7538;53.626;9.906;2023-04-15T00:44:55;8.80;99.90
14893;DHT22;7538;53.626;9.906;2023-04-15T00:47:22;8.90;99.90
14893;DHT22;7538;53.626;9.906;2023-04-15T00:49:49;8.90;99.90
14893;DHT22;7538;53.626;9.906;2023-04-15T00:52:16;8.80;99.90
14893;DHT22;7538;53.626;9.906;2023-04-15T00:54:43;8.70;99.90
14893;DHT22;7538;53.626;9.906;2023-04-15T00:57:10;8.70;99.90
14893;DHT22;7538;53.626;9.906;2023-04-15T00:59:37;8.70;99.90
14893;DHT22;7538;53.626;9.906;2023-04-15T01:02:05;8.70;99.90
14893;DHT22;7538;53.626;9.906;2023-04-15T01:04:32;8.70;99.90
14893;DHT22;7538;53.626;9.906;2023-04-15T01:06:59;8.70;99.90
14893;DHT22;7538;53.626;9.906;2023-04-15T01:09:27;8.70;99.90
14893;DHT22;7538;53.626;9.906;2023-04-15T01:11:53;8.70;99.90
14893;DHT22;7538;53.626;9.906;2023-04-15T01:14:20;8.70;99.90
14893;DHT22;7538;53.626;9.906;2023-04-15T01:16:47;8.70;99.90
14893;DHT22;7538;53.626;9.906;2023-04-15T01:19:16;8.80;99.90
14893;DHT22;7538;53.626;9.906;2023-04-15T01:21:43;8.80;99.90
14893;DHT22;7538;53.626;9.906;2023-04-15T01:24:10;8.80;99.90
14893;DHT22;7538;53.626;9.906;2023-04-15T01:26:40;8.80;99.90
14893;DHT22;7538;53.626;9.906;2023-04-15T01:29:07;8.80;99.90
14893;DHT22;7538;53.626;9.906;2023-04-15T01:31:34;8.90;99.90
14893;DHT22;7538;53.626;9.906;2023-04-15T01:34:02;8.80;99.90
14893;DHT22;7538;53.626;9.906;2023-04-15T01:36:28;8.90;99.90
14893;DHT22;7538;53.626;9.906;2023-04-15T01:38:55;8.90;99.90
14893;DHT22;7538;53.626;9.906;2023-04-15T01:41:24;8.90;99.90
14893;DHT22;7538;53.626;9.906;2023-04-15T01:43:53;8.90;99.90
14893;DHT22;7538;53.626;9.906;2023-04-15T01:46:20;8.80;99.90
14893;DHT22;7538;53.626;9.906;2023-04-15T01:48:46;8.80;99.90
14893;DHT22;7538;53.626;9.906;2023-04-15T01:51:13;8.90;99.90
14893;DHT22;7538;53.626;9.906;2023-04-15T01:53:41;8.80;99.90
14893;DHT22;7538;53.626;9.906;2023-04-15T01:56:07;8.80;99.90
14893;DHT22;7538;53.626;9.906;2023-04-15T01:58:34;8.80;99.90
14893;DHT22;7538;53.626;9.906;2023-04-15T02:01:03;8.80;99.90
14893;DHT22;7538;53.626;9.906;2023-04-15T02:03:30;8.90;99.90
14893;DHT22;7538;53.626;9.906;2023-04-15T02:05:56;8.90;99.90
14893;DHT22;7538;53.626;9.906;2023-04-15T02:08:23;8.80;99.90
14893;DHT22;7538;53.626;9.906;2023-04-15T02:10:50;8.90;99.90
14893;DHT22;7538;53.626;9.906;2023-04-15T02:13:17;11.80;99.90
14893;DHT22;7538;53.626;9.906;2023-04-15T02:15:46;8.80;99.90
14893;DHT22;7538;53.626;9.906;2023-04-15T02:18:15;8.70;99.90
14893;DHT22;7538;53.626;9.906;2023-04-15T02:20:42;8.70;99.90
14893;DHT22;7538;53.626;9.906;2023-04-15T02:23:09;8.70;99.90
14893;DHT22;7538;53.626;9.906;2023-04-15T02:25:36;8.60;99.90
14893;DHT22;7538;53.626;9.906;2023-04-15T02:28:04;8.70;99.90
14893;DHT22;7538;53.626;9.906;2023-04-15T02:30:31;8.70;99.90
14893;DHT22;7538;53.626;9.906;2023-04-15T02:32:59;8.70;99.90
14893;DHT22;7538;53.626;9.906;2023-04-15T02:35:27;8.70;99.90
14893;DHT22;7538;53.626;9.906;2023-04-15T02:37:54;8.80;99.90
14893;DHT22;7538;53.626;9.906;2023-04-15T02:40:21;8.80;99.90
14893;DHT22;7538;53.626;9.906;2023-04-15T02:42:48;8.80;99.90
14893;DHT22;7538;53.626;9.906;2023-04-15T02:45:15;8.80;99.90
14893;DHT22;7538;53.626;9.906;2023-04-15T02:47:44;8.90;99.90
14893;DHT22;7538;53.626;9.906;2023-04-15T02:50:12;8.90;99.90
14893;DHT22;7538;53.626;9.906;2023-04-15T02:52:41;8.80;99.90
14893;DHT22;7538;53.626;9.906;2023-04-15T02:55:09;8.80;99.90
14893;DHT22;7538;53.626;9.906;2023-04-15T02:57:36;11.20;99.90
14893;DHT22;7538;53.626;9.906;2023-04-15T03:00:04;8.80;99.90
14893;DHT22;7538;53.626;9.906;2023-04-15T03:02:34;8.80;99.90
14893;DHT22;7538;53.626;9.906;2023-04-15T03:05:00;8.80;99.90
14893;DHT22;7538;53.626;9.906;2023-04-15T03:07:27;8.70;99.90
14893;DHT22;7538;53.626;9.906;2023-04-15T03:09:55;8.80;99.90
14893;DHT22;7538;53.626;9.906;2023-04-15T03:12:22;8.70;99.90
14893;DHT22;7538;53.626;9.906;2023-04-15T03:14:49;8.70;99.90
14893;DHT22;7538;53.626;9.906;2023-04-15T03:17:16;8.60;99.90
14893;DHT22;7538;53.626;9.906;2023-04-15T03:19:43;8.60;99.90
14893;DHT22;7538;53.626;9.906;2023-04-15T03:22:10;8.60;99.90
14893;DHT22;7538;53.626;9.906;2023-04-15T03:24:36;8.50;99.90
14893;DHT22;7538;53.626;9.906;2023-04-15T03:27:04;8.50;99.90
14893;DHT22;7538;53.626;9.906;2023-04-15T03:29:32;8.50;99.90
14893;DHT22;7538;53.626;9.906;2023-04-15T03:31:59;8.60;99.90
14893;DHT22;7538;53.626;9.906;2023-04-15T03:34:26;8.60;99.90
14893;DHT22;7538;53.626;9.906;2023-04-15T03:36:53;8.60;99.90
14893;DHT22;7538;53.626;9.906;2023-04-15T03:39:19;10.20;99.90
14893;DHT22;7538;53.626;9.906;2023-04-15T03:41:46;8.60;99.90
14893;DHT22;7538;53.626;9.906;2023-04-15T03:44:14;8.70;99.90
14893;DHT22;7538;53.626;9.906;2023-04-15T03:46:41;8.70;99.90
14893;DHT22;7538;53.626;9.906;2023-04-15T03:49:09;8.70;99.90
14893;DHT22;7538;53.626;9.906;2023-04-15T03:51:36;8.70;99.90
14893;DHT22;7538;53.626;9.906;2023-04-15T03:54:03;8.80;99.90
14893;DHT22;7538;53.626;9.906;2023-04-15T03:56:30;8.80;99.90
14893;DHT22;7538;53.626;9.906;2023-04-15T03:58:56;8.70;99.90
14893;DHT22;7538;53.626;9.906;2023-04-15T04:01:25;8.70;99.90
14893;DHT22;7538;53.626;9.906;2023-04-15T04:03:51;8.70;99.90
14893;DHT22;7538;53.626;9.906;2023-04-15T04:06:18;8.70;99.90
14893;DHT22;7538;53.626;9.906;2023-04-15T04:08:45;8.70;99.90
14893;DHT22;7538;53.626;9.906;2023-04-15T04:11:12;8.80;99.90
14893;DHT22;7538;53.626;9.906;2023-04-15T04:13:39;7.80;99.90
14893;DHT22;7538;53.626;9.906;2023-04-15T04:16:06;8.80;99.90
14893;DHT22;7538;53.626;9.906;2023-04-15T04:18:34;8.90;99.90
14893;DHT22;7538;53.626;9.906;2023-04-15T04:21:01;8.90;99.90
14893;DHT22;7538;53.626;9.906;2023-04-15T04:23:27;8.90;99.90
14893;DHT22;7538;53.626;9.906;2023-04-15T04:25:54;8.90;99.90
14893;DHT22;7538;53.626;9.906;2023-04-15T04:28:22;9.00;99.90
14893;DHT22;7538;53.626;9.906;2023-04-15T04:30:48;9.00;99.90
14893;DHT22;7538;53.626;9.906;2023-04-15T04:33:15;9.00;99.90
14893;DHT22;7538;53.626;9.906;2023-04-15T04:35:43;9.00;99.90
14893;DHT22;7538;53.626;9.906;2023-04-15T04:38:10;9.00;99.90
14893;DHT22;7538;53.626;9.906;2023-04-15T04:40:37;9.00;99.90
14893;DHT22;7538;53.626;9.906;2023-04-15T04:43:04;9.00;99.90
14893;DHT22;7538;53.626;9.906;2023-04-15T04:45:31;9.00;99.90
14893;DHT22;7538;53.626;9.906;2023-04-15T04:47:58;9.00;99.90
14893;DHT22;7538;53.626;9.906;2023-04-15T04:50:25;9.10;99.90
14893;DHT22;7538;53.626;9.906;2023-04-15T04:52:53;9.10;99.90
14893;DHT22;7538;53.626;9.906;2023-04-15T04:55:20;9.10;99.90
14893;DHT22;7538;53.626;9.906;2023-04-15T04:57:46;9.10;99.90
14893;DHT22;7538;53.626;9.906;2023-04-15T05:00:13;9.10;99.90
14893;DHT22;7538;53.626;9.906;2023-04-15T05:02:40;9.10;99.90
14893;DHT22;7538;53.626;9.906;2023-04-15T05:05:09;9.10;99.90
14893;DHT22;7538;53.626;9.906;2023-04-15T05:07:36;9.00;99.90
14893;DHT22;7538;53.626;9.906;2023-04-15T05:10:06;8.90;99.90
14893;DHT22;7538;53.626;9.906;2023-04-15T05:12:34;9.00;99.90
14893;DHT22;7538;53.626;9.906;2023-04-15T05:15:01;9.00;99.90
14893;DHT22;7538;53.626;9.906;2023-04-15T05:17:28;9.00;99.90
14893;DHT22;7538;53.626;9.906;2023-04-15T05:19:56;9.10;99.90
14893;DHT22;7538;53.626;9.906;2023-04-15T05:22:23;9.10;99.90
14893;DHT22;7538;53.626;9.906;2023-04-15T05:24:50;9.10;99.90
14893;DHT22;7538;53.626;9.906;2023-04-15T05:27:18;9.10;99.90
14893;DHT22;7538;53.626;9.906;2023-04-15T05:29:45;9.10;99.90
14893;DHT22;7538;53.626;9.906;2023-04-15T05:32:11;9.10;99.90
14893;DHT22;7538;53.626;9.906;2023-04-15T05:34:38;9.10;99.90
14893;DHT22;7538;53.626;9.906;2023-04-15T05:37:05;9.10;99.90
14893;DHT22;7538;53.626;9.906;2023-04-15T05:39:32;9.10;99.90
14893;DHT22;7538;53.626;9.906;2023-04-15T05:41:59;9.10;99.90
14893;DHT22;7538;53.626;9.906;2023-04-15T05:44:27;9.10;99.90
14893;DHT22;7538;53.626;9.906;2023-04-15T05:46:54;9.10;99.90
14893;DHT22;7538;53.626;9.906;2023-04-15T05:49:20;9.10;99.90
14893;DHT22;7538;53.626;9.906;2023-04-15T05:51:47;9.20;99.90
14893;DHT22;7538;53.626;9.906;2023-04-15T05:54:14;9.20;99.90
14893;DHT22;7538;53.626;9.906;2023-04-15T05:56:41;9.20;99.90
14893;DHT22;7538;53.626;9.906;2023-04-15T05:59:08;9.20;99.90
14893;DHT22;7538;53.626;9.906;2023-04-15T06:01:36;9.20;99.90
14893;DHT22;7538;53.626;9.906;2023-04-15T06:04:03;9.20;99.90
14893;DHT22;7538;53.626;9.906;2023-04-15T06:06:30;9.20;99.90
14893;DHT22;7538;53.626;9.906;2023-04-15T06:08:58;9.20;99.90
14893;DHT22;7538;53.626;9.906;2023-04-15T06:11:24;9.20;99.90
14893;DHT22;7538;53.626;9.906;2023-04-15T06:13:52;9.20;99.90
14893;DHT22;7538;53.626;9.906;2023-04-15T06:16:18;9.20;99.90
14893;DHT22;7538;53.626;9.906;2023-04-15T06:18:47;9.20;99.90
14893;DHT22;7538;53.626;9.906;2023-04-15T06:21:14;8.10;99.90
14893;DHT22;7538;53.626;9.906;2023-04-15T06:23:41;9.20;99.90
14893;DHT22;7538;53.626;9.906;2023-04-15T06:26:08;9.20;99.90
14893;DHT22;7538;53.626;9.906;2023-04-15T06:28:35;9.20;99.90
14893;DHT22;7538;53.626;9.906;2023-04-15T06:31:01;9.20;99.90
14893;DHT22;7538;53.626;9.906;2023-04-15T06:33:28;9.20;99.90
14893;DHT22;7538;53.626;9.906;2023-04-15T06:35:57;9.30;99.90
14893;DHT22;7538;53.626;9.906;2023-04-15T06:38:23;9.30;99.90
14893;DHT22;7538;53.626;9.906;2023-04-15T06:40:50;9.30;99.90
14893;DHT22;7538;53.626;9.906;2023-04-15T06:43:17;9.30;99.90
14893;DHT22;7538;53.626;9.906;2023-04-15T06:45:44;9.40;99.90
14893;DHT22;7538;53.626;9.906;2023-04-15T06:48:11;9.40;99.90
14893;DHT22;7538;53.626;9.906;2023-04-15T06:50:38;9.40;99.90
14893;DHT22;7538;53.626;9.906;2023-04-15T06:53:06;9.50;99.90
14893;DHT22;7538;53.626;9.906;2023-04-15T06:55:33;9.50;99.90
14893;DHT22;7538;53.626;9.906;2023-04-15T06:58:00;9.60;99.90
14893;DHT22;7538;53.626;9.906;2023-04-15T07:00:26;9.60;99.90
14893;DHT22;7538;53.626;9.906;2023-04-15T07:02:54;9.70;99.90
14893;DHT22;7538;53.626;9.906;2023-04-15T07:05:21;9.70;99.90
14893;DHT22;7538;53.626;9.906;2023-04-15T07:07:48;9.70;99.90
14893;DHT22;7538;53.626;9.906;2023-04-15T07:10:16;9.70;99.90
14893;DHT22;7538;53.626;9.906;2023-04-15T07:12:43;9.70;99.90
14893;DHT22;7538;53.626;9.906;2023-04-15T07:15:10;9.80;99.90
14893;DHT22;7538;53.626;9.906;2023-04-15T07:17:39;9.80;99.90
14893;DHT22;7538;53.626;9.906;2023-04-15T07:20:07;9.90;99.90
14893;DHT22;7538;53.626;9.906;2023-04-15T07:22:34;10.00;99.90
14893;DHT22;7538;53.626;9.906;2023-04-15T07:25:01;10.10;99.90
14893;DHT22;7538;53.626;9.906;2023-04-15T07:27:29;10.10;99.90
14893;DHT22;7538;53.626;9.906;2023-04-15T07:29:56;10.10;99.90
14893;DHT22;7538;53.626;9.906;2023-04-15T07:32:23;10.20;99.90
14893;DHT22;7538;53.626;9.906;2023-04-15T07:34:50;10.20;99.90
14893;DHT22;7538;53.626;9.906;2023-04-15T07:37:18;10.30;99.90
14893;DHT22;7538;53.626;9.906;2023-04-15T07:39:44;10.30;99.90
14893;DHT22;7538;53.626;9.906;2023-04-15T07:42:11;10.30;99.90
14893;DHT22;7538;53.626;9.906;2023-04-15T07:44:40;10.30;99.90
14893;DHT22;7538;53.626;9.906;2023-04-15T07:47:07;10.30;99.90
14893;DHT22;7538;53.626;9.906;2023-04-15T07:49:36;10.40;99.90
14893;DHT22;7538;53.626;9.906;2023-04-15T07:52:03;10.40;99.90
14893;DHT22;7538;53.626;9.906;2023-04-15T07:54:31;10.40;99.90
14893;DHT22;7538;53.626;9.906;2023-04-15T07:56:58;10.50;99.90
14893;DHT22;7538;53.626;9.906;2023-04-15T07:59:24;10.50;99.90
14893;DHT22;7538;53.626;9.906;2023-04-15T08:01:53;10.50;99.90
14893;DHT22;7538;53.626;9.906;2023-04-15T08:04:20;10.50;99.90
14893;DHT22;7538;53.626;9.906;2023-04-15T08:06:47;9.80;99.90
14893;DHT22;7538;53.626;9.906;2023-04-15T08:09:14;10.70;99.90
14893;DHT22;7538;53.626;9.906;2023-04-15T08:11:41;10.70;99.90
14893;DHT22;7538;53.626;9.906;2023-04-15T08:14:08;10.80;99.90
14893;DHT22;7538;53.626;9.906;2023-04-15T08:16:35;10.80;99.90
14893;DHT22;7538;53.626;9.906;2023-04-15T08:19:03;10.90;99.90
14893;DHT22;7538;53.626;9.906;2023-04-15T08:21:30;11.00;99.90
14893;DHT22;7538;53.626;9.906;2023-04-15T08:23:57;11.10;99.90
14893;DHT22;7538;53.626;9.906;2023-04-15T08:26:24;11.10;99.90
14893;DHT22;7538;53.626;9.906;2023-04-15T08:28:51;11.20;99.90
14893;DHT22;7538;53.626;9.906;2023-04-15T08:31:18;11.20;99.90
14893;DHT22;7538;53.626;9.906;2023-04-15T08:33:46;10.30;99.90
14893;DHT22;7538;53.626;9.906;2023-04-15T08:36:14;11.30;99.90
14893;DHT22;7538;53.626;9.906;2023-04-15T08:38:43;11.30;99.90
14893;DHT22;7538;53.626;9.906;2023-04-15T08:41:21;11.30;99.90
14893;DHT22;7538;53.626;9.906;2023-04-15T08:43:55;11.30;99.90
14893;DHT22;7538;53.626;9.906;2023-04-15T08:46:22;11.30;99.90
14893;DHT22;7538;53.626;9.906;2023-04-15T08:48:50;11.40;99.90
14893;DHT22;7538;53.626;9.906;2023-04-15T08:51:18;11.40;99.90
14893;DHT22;7538;53.626;9.906;2023-04-15T08:53:45;11.50;99.90
14893;DHT22;7538;53.626;9.906;2023-04-15T08:56:14;11.50;99.90
14893;DHT22;7538;53.626;9.906;2023-04-15T08:58:42;11.60;99.90
14893;DHT22;7538;53.626;9.906;2023-04-15T09:01:10;11.60;99.90
14893;DHT22;7538;53.626;9.906;2023-04-15T09:03:37;11.60;99.90
14893;DHT22;7538;53.626;9.906;2023-04-15T09:06:04;11.60;99.90
14893;DHT22;7538;53.626;9.906;2023-04-15T09:08:33;11.60;99.90
14893;DHT22;7538;53.626;9.906;2023-04-15T09:11:00;11.70;99.90
14893;DHT22;7538;53.626;9.906;2023-04-15T09:13:27;11.70;99.90
14893;DHT22;7538;53.626;9.906;2023-04-15T09:15:54;11.80;99.90
14893;DHT22;7538;53.626;9.906;2023-04-15T09:18:29;11.80;99.90
14893;DHT22;7538;53.626;9.906;2023-04-15T09:21:03;11.80;99.90
14893;DHT22;7538;53.626;9.906;2023-04-15T09:23:33;11.90;99.90
14893;DHT22;7538;53.626;9.906;2023-04-15T09:26:00;12.00;99.90
14893;DHT22;7538;53.626;9.906;2023-04-15T09:28:27;12.10;99.90
14893;DHT22;7538;53.626;9.906;2023-04-15T09:30:57;12.20;99.90
14893;DHT22;7538;53.626;9.906;2023-04-15T09:33:24;12.30;99.90
14893;DHT22;7538;53.626;9.906;2023-04-15T09:35:56;12.40;99.90
14893;DHT22;7538;53.626;9.906;2023-04-15T09:38:23;12.50;99.90
14893;DHT22;7538;53.626;9.906;2023-04-15T09:40:52;12.60;99.90
14893;DHT22;7538;53.626;9.906;2023-04-15T09:43:19;12.70;99.90
14893;DHT22;7538;53.626;9.906;2023-04-15T09:45:48;12.80;99.90
14893;DHT22;7538;53.626;9.906;2023-04-15T09:48:17;12.90;99.90
14893;DHT22;7538;53.626;9.906;2023-04-15T09:50:45;13.00;99.90
14893;DHT22;7538;53.626;9.906;2023-04-15T09:53:16;13.10;99.90
14893;DHT22;7538;53.626;9.906;2023-04-15T09:55:45;13.20;99.90
14893;DHT22;7538;53.626;9.906;2023-04-15T09:58:18;13.30;99.90
14893;DHT22;7538;53.626;9.906;2023-04-15T10:00:46;13.20;99.90
14893;DHT22;7538;53.626;9.906;2023-04-15T10:03:16;13.10;99.90
14893;DHT22;7538;53.626;9.906;2023-04-15T10:05:45;13.10;99.90
14893;DHT22;7538;53.626;9.906;2023-04-15T10:08:14;13.10;99.90
14893;DHT22;7538;53.626;9.906;2023-04-15T10:10:41;13.20;99.90
14893;DHT22;7538;53.626;9.906;2023-04-15T10:13:08;13.30;99.90
14893;DHT22;7538;53.626;9.906;2023-04-15T10:15:37;13.40;99.90
14893;DHT22;7538;53.626;9.906;2023-04-15T10:18:04;13.50;99.90
14893;DHT22;7538;53.626;9.906;2023-04-15T10:20:33;13.70;99.90
14893;DHT22;7538;53.626;9.906;2023-04-15T10:23:01;13.80;99.90
14893;DHT22;7538;53.626;9.906;2023-04-15T10:25:28;13.90;99.90
14893;DHT22;7538;53.626;9.906;2023-04-15T10:27:56;14.20;99.90
14893;DHT22;7538;53.626;9.906;2023-04-15T10:30:24;14.50;99.90
14893;DHT22;7538;53.626;9.906;2023-04-15T10:32:52;14.80;99.90
14893;DHT22;7538;53.626;9.906;2023-04-15T10:35:20;15.00;99.90
14893;DHT22;7538;53.626;9.906;2023-04-15T10:37:48;15.20;99.90
14893;DHT22;7538;53.626;9.906;2023-04-15T10:40:26;15.30;99.90
14893;DHT22;7538;53.626;9.906;2023-04-15T10:42:54;15.30;99.90
14893;DHT22;7538;53.626;9.906;2023-04-15T10:45:21;15.60;99.90
14893;DHT22;7538;53.626;9.906;2023-04-15T10:47:54;15.70;99.90
14893;DHT22;7538;53.626;9.906;2023-04-15T10:50:21;14.90;99.90
14893;DHT22;7538;53.626;9.906;2023-04-15T10:52:50;16.00;99.90
14893;DHT22;7538;53.626;9.906;2023-04-15T10:55:19;15.90;99.90
14893;DHT22;7538;53.626;9.906;2023-04-15T10:57:51;16.10;99.90
14893;DHT22;7538;53.626;9.906;2023-04-15T11:00:19;16.60;99.90
14893;DHT22;7538;53.626;9.906;2023-04-15T11:02:47;17.70;99.90
14893;DHT22;7538;53.626;9.906;2023-04-15T11:05:16;19.00;99.90
14893;DHT22;7538;53.626;9.906;2023-04-15T11:07:49;19.70;99.90
14893;DHT22;7538;53.626;9.906;2023-04-15T11:10:49;19.70;97.20
14893;DHT22;7538;53.626;9.906;2023-04-15T11:13:22;19.40;96.90
14893;DHT22;7538;53.626;9.906;2023-04-15T11:15:55;19.20;97.60
14893;DHT22;7538;53.626;9.906;2023-04-15T11:18:24;19.00;98.30
14893;DHT22;7538;53.626;9.906;2023-04-15T11:20:53;19.40;98.40
14893;DHT22;7538;53.626;9.906;2023-04-15T11:23:27;19.40;96.90
14893;DHT22;7538;53.626;9.906;2023-04-15T11:25:55;19.10;96.30
14893;DHT22;7538;53.626;9.906;2023-04-15T11:28:24;18.70;94.90
14893;DHT22;7538;53.626;9.906;2023-04-15T11:30:52;18.10;95.60
14893;DHT22;7538;53.626;9.906;2023-04-15T11:33:20;17.50;96.80
14893;DHT22;7538;53.626;9.906;2023-04-15T11:35:48;17.10;97.80
14893;DHT22;7538;53.626;9.906;2023-04-15T11:38:16;16.80;98.50
14893;DHT22;7538;53.626;9.906;2023-04-15T11:40:44;16.60;99.30
14893;DHT22;7538;53.626;9.906;2023-04-15T11:43:12;16.40;98.30
14893;DHT22;7538;53.626;9.906;2023-04-15T11:45:48;16.10;97.80
14893;DHT22;7538;53.626;9.906;2023-04-15T11:48:16;15.70;99.60
14893;DHT22;7538;53.626;9.906;2023-04-15T11:50:44;15.50;99.90
14893;DHT22;7538;53.626;9.906;2023-04-15T11:53:12;15.20;99.90
14893;DHT22;7538;53.626;9.906;2023-04-15T11:55:45;15.00;99.90
14893;DHT22;7538;53.626;9.906;2023-04-15T11:58:13;15.00;99.90
14893;DHT22;7538;53.626;9.906;2023-04-15T12:00:46;14.90;99.90
14893;DHT22;7538;53.626;9.906;2023-04-15T12:03:24;15.10;99.90
14893;DHT22;7538;53.626;9.906;2023-04-15T12:06:08;15.20;99.90
14893;DHT22;7538;53.626;9.906;2023-04-15T12:08:59;15.20;99.90
14893;DHT22;7538;53.626;9.906;2023-04-15T12:11:34;15.10;99.90
14893;DHT22;7538;53.626;9.906;2023-04-15T12:14:06;15.10;99.90
14893;DHT22;7538;53.626;9.906;2023-04-15T12:16:35;15.00;99.90
14893;DHT22;7538;53.626;9.906;2023-04-15T12:19:05;15.00;99.90
14893;DHT22;7538;53.626;9.906;2023-04-15T12:21:34;14.90;99.90
14893;DHT22;7538;53.626;9.906;2023-04-15T12:24:02;14.80;99.90
14893;DHT22;7538;53.626;9.906;2023-04-15T12:26:33;14.80;99.90
14893;DHT22;7538;53.626;9.906;2023-04-15T12:29:00;14.70;99.90
14893;DHT22;7538;53.626;9.906;2023-04-15T12:31:27;14.60;99.90
14893;DHT22;7538;53.626;9.906;2023-04-15T12:33:54;14.50;99.90
14893;DHT22;7538;53.626;9.906;2023-04-15T12:36:22;14.50;99.90
14893;DHT22;7538;53.626;9.906;2023-04-15T12:38:49;14.40;99.90
14893;DHT22;7538;53.626;9.906;2023-04-15T12:41:16;14.50;99.90
14893;DHT22;7538;53.626;9.906;2023-04-15T12:43:44;14.60;99.90
14893;DHT22;7538;53.626;9.906;2023-04-15T12:46:12;14.60;99.90
14893;DHT22;7538;53.626;9.906;2023-04-15T12:48:39;14.60;99.90
14893;DHT22;7538;53.626;9.906;2023-04-15T12:51:06;14.60;99.90
14893;DHT22;7538;53.626;9.906;2023-04-15T12:53:33;14.70;99.90
14893;DHT22;7538;53.626;9.906;2023-04-15T12:55:59;14.80;99.90
14893;DHT22;7538;53.626;9.906;2023-04-15T12:58:26;14.90;99.90
14893;DHT22;7538;53.626;9.906;2023-04-15T13:00:54;14.90;99.90
14893;DHT22;7538;53.626;9.906;2023-04-15T13:03:22;14.90;99.90
14893;DHT22;7538;53.626;9.906;2023-04-15T13:05:49;15.00;99.90
14893;DHT22;7538;53.626;9.906;2023-04-15T13:08:16;15.10;99.90
14893;DHT22;7538;53.626;9.906;2023-04-15T13:10:42;15.20;99.90
14893;DHT22;7538;53.626;9.906;2023-04-15T13:13:09;15.30;99.90
14893;DHT22;7538;53.626;9.906;2023-04-15T13:15:36;15.50;99.90
14893;DHT22;7538;53.626;9.906;2023-04-15T13:18:05;15.60;99.90
14893;DHT22;7538;53.626;9.906;2023-04-15T13:20:33;15.80;99.90
14893;DHT22;7538;53.626;9.906;2023-04-15T13:22:59;15.90;99.90
14893;DHT22;7538;53.626;9.906;2023-04-15T13:25:26;16.00;99.90
14893;DHT22;7538;53.626;9.906;2023-04-15T13:27:53;16.00;99.90
14893;DHT22;7538;53.626;9.906;2023-04-15T13:30:20;16.00;99.90
14893;DHT22;7538;53.626;9.906;2023-04-15T13:32:47;16.20;99.90
14893;DHT22;7538;53.626;9.906;2023-04-15T13:35:15;16.40;99.20
14893;DHT22;7538;53.626;9.906;2023-04-15T13:37:42;16.40;97.80
14893;DHT22;7538;53.626;9.906;2023-04-15T13:40:09;16.50;97.60
14893;DHT22;7538;53.626;9.906;2023-04-15T13:42:36;16.60;97.20
14893;DHT22;7538;53.626;9.906;2023-04-15T13:45:03;16.50;96.50
14893;DHT22;7538;53.626;9.906;2023-04-15T13:47:30;14.90;95.80
14893;DHT22;7538;53.626;9.906;2023-04-15T13:49:57;16.10;96.30
14893;DHT22;7538;53.626;9.906;2023-04-15T13:52:25;16.00;97.00
14893;DHT22;7538;53.626;9.906;2023-04-15T13:54:52;15.90;97.30
14893;DHT22;7538;53.626;9.906;2023-04-15T13:57:19;16.00;96.90
14893;DHT22;7538;53.626;9.906;2023-04-15T13:59:46;16.00;96.60
14893;DHT22;7538;53.626;9.906;2023-04-15T14:02:13;16.00;96.30
14893;DHT22;7538;53.626;9.906;2023-04-15T14:04:40;16.10;96.50
14893;DHT22;7538;53.626;9.906;2023-04-15T14:07:07;16.10;96.70
14893;DHT22;7538;53.626;9.906;2023-04-15T14:09:36;16.20;97.20
14893;DHT22;7538;53.626;9.906;2023-04-15T14:12:03;16.30;95.90
14893;DHT22;7538;53.626;9.906;2023-04-15T14:14:30;16.20;96.40
14893;DHT22;7538;53.626;9.906;2023-04-15T14:16:57;16.20;96.70
14893;DHT22;7538;53.626;9.906;2023-04-15T14:19:23;16.10;96.20
14893;DHT22;7538;53.626;9.906;2023-04-15T14:21:51;15.90;96.10
14893;DHT22;7538;53.626;9.906;2023-04-15T14:24:17;15.80;96.40
14893;DHT22;7538;53.626;9.906;2023-04-15T14:26:46;15.60;96.60
14893;DHT22;7538;53.626;9.906;2023-04-15T14:29:12;15.50;97.20
14893;DHT22;7538;53.626;9.906;2023-04-15T14:31:40;15.40;97.40
14893;DHT22;7538;53.626;9.906;2023-04-15T14:34:07;15.50;97.00
14893;DHT22;7538;53.626;9.906;2023-04-15T14:36:33;15.50;97.60
14893;DHT22;7538;53.626;9.906;2023-04-15T14:39:00;15.50;97.90
14893;DHT22;7538;53.626;9.906;2023-04-15T14:41:28;15.50;98.10
14893;DHT22;7538;53.626;9.906;2023-04-15T14:43:56;15.50;98.20
14893;DHT22;7538;53.626;9.906;2023-04-15T14:46:23;15.50;98.00
14893;DHT22;7538;53.626;9.906;2023-04-15T14:48:50;15.50;98.20
14893;DHT22;7538;53.626;9.906;2023-04-15T14:51:17;15.60;98.10
14893;DHT22;7538;53.626;9.906;2023-04-15T14:53:44;15.40;98.30
14893;DHT22;7538;53.626;9.906;2023-04-15T14:56:11;15.40;98.40
14893;DHT22;7538;53.626;9.906;2023-04-15T14:58:38;15.30;98.60
14893;DHT22;7538;53.626;9.906;2023-04-15T15:01:06;15.30;98.20
14893;DHT22;7538;53.626;9.906;2023-04-15T15:03:33;15.20;98.40
14893;DHT22;7538;53.626;9.906;2023-04-15T15:06:00;15.30;98.50
14893;DHT22;7538;53.626;9.906;2023-04-15T15:08:28;15.40;98.70
14893;DHT22;7538;53.626;9.906;2023-04-15T15:10:54;15.40;98.60
14893;DHT22;7538;53.626;9.906;2023-04-15T15:13:21;15.40;98.30
14893;DHT22;7538;53.626;9.906;2023-04-15T15:15:48;15.30;98.50
14893;DHT22;7538;53.626;9.906;2023-04-15T15:18:17;15.30;99.00
14893;DHT22;7538;53.626;9.906;2023-04-15T15:20:44;15.40;98.10
14893;DHT22;7538;53.626;9.906;2023-04-15T15:23:10;15.30;98.30
14893;DHT22;7538;53.626;9.906;2023-04-15T15:25:37;15.20;98.40
14893;DHT22;7538;53.626;9.906;2023-04-15T15:28:05;15.20;98.40
14893;DHT22;7538;53.626;9.906;2023-04-15T15:30:32;15.20;98.60
14893;DHT22;7538;53.626;9.906;2023-04-15T15:32:59;16.90;99.40
14893;DHT22;7538;53.626;9.906;2023-04-15T15:35:27;15.20;99.00
14893;DHT22;7538;53.626;9.906;2023-04-15T15:37:54;15.00;99.30
14893;DHT22;7538;53.626;9.906;2023-04-15T15:40:21;15.10;99.70
14893;DHT22;7538;53.626;9.906;2023-04-15T15:42:47;15.10;99.50
14893;DHT22;7538;53.626;9.906;2023-04-15T15:45:15;15.00;99.20
14893;DHT22;7538;53.626;9.906;2023-04-15T15:47:42;14.90;99.60
14893;DHT22;7538;53.626;9.906;2023-04-15T15:50:12;14.80;99.90
14893;DHT22;7538;53.626;9.906;2023-04-15T15:52:40;14.80;99.90
14893;DHT22;7538;53.626;9.906;2023-04-15T15:55:07;14.80;99.90